Bathurst, Australia
Current Conditions -  °F | °C
As of 5:00 PM on Saturday 29 Nov 2014 (Local Time) from YMDG Reporting Station
Clear Clear  
Wind Chill: 82°   Ceiling: Unl
Heat Index: 82°   Visibility: NA
Dew Point: 52°   Wind: 18mph
Humidity: 35%   Direction: 320°NW
Pressure: 29.91"   Gusts: NA
Location:  33.42°S, 149.57°E
Report Text: YMDG 290600Z AUTO 32016KT //// // NCD 28/11 Q1013
Loading
Personal Weather Stations






























Interactive Weather Map New forecast layout! Learn more

10-Day Weather Forecast

Advertisements
Track Severe Weather on mobile